createdAt,value
2019-05-20T00:00:27.549Z,58.10
2019-05-20T00:03:04.104Z,57.30
2019-05-20T00:05:40.027Z,56.50
2019-05-20T00:08:15.644Z,55.90
2019-05-20T00:10:51.558Z,55.00
2019-05-20T00:13:28.589Z,55.90
2019-05-20T00:16:04.346Z,56.40
2019-05-20T00:18:40.129Z,54.10
2019-05-20T00:21:15.907Z,55.60
2019-05-20T00:23:51.619Z,53.40
2019-05-20T00:26:28.268Z,53.30
2019-05-20T00:29:03.799Z,53.70
2019-05-20T00:31:40.991Z,54.00
2019-05-20T00:34:17.357Z,54.60
2019-05-20T00:36:54.341Z,53.60
2019-05-20T00:39:31.486Z,52.70
2019-05-20T00:42:09.106Z,53.90
2019-05-20T00:44:48.492Z,51.60
2019-05-20T00:47:32.094Z,53.60
2019-05-20T00:50:10.776Z,52.80
2019-05-20T00:52:45.927Z,53.30
2019-05-20T00:55:29.165Z,50.20
2019-05-20T00:58:05.621Z,48.40
2019-05-20T01:00:41.964Z,49.10
2019-05-20T01:03:19.430Z,51.20
2019-05-20T01:05:55.342Z,51.80
2019-05-20T01:08:31.864Z,50.10
2019-05-20T01:11:07.484Z,47.90
2019-05-20T01:13:43.272Z,50.70
2019-05-20T01:16:19.026Z,47.80
2019-05-20T01:18:55.409Z,48.00
2019-05-20T01:21:32.379Z,48.50
2019-05-20T01:24:08.396Z,46.00
2019-05-20T01:26:45.313Z,47.40
2019-05-20T01:29:22.864Z,47.10
2019-05-20T01:32:00.093Z,44.50
2019-05-20T01:34:37.871Z,46.00
2019-05-20T01:37:15.841Z,49.00
2019-05-20T01:39:52.246Z,48.10
2019-05-20T01:42:28.012Z,45.60
2019-05-20T01:45:06.176Z,43.10
2019-05-20T01:47:41.880Z,44.80
2019-05-20T01:50:19.988Z,43.50
2019-05-20T01:52:57.359Z,45.20
2019-05-20T01:55:33.491Z,47.20
2019-05-20T01:58:10.016Z,43.70
2019-05-20T02:00:45.927Z,41.60
2019-05-20T02:03:31.647Z,47.60
2019-05-20T02:06:02.126Z,40.40
2019-05-20T02:08:37.658Z,41.80
2019-05-20T02:11:15.473Z,40.20
2019-05-20T02:14:02.992Z,42.30
2019-05-20T02:16:40.507Z,44.20
2019-05-20T02:19:16.093Z,41.10
2019-05-20T02:21:54.627Z,41.40
2019-05-20T02:24:30.440Z,41.90
2019-05-20T02:27:06.253Z,41.30
2019-05-20T02:29:41.810Z,39.20
2019-05-20T02:32:21.066Z,40.80
2019-05-20T02:34:58.381Z,40.30
2019-05-20T02:37:35.768Z,44.30
2019-05-20T02:40:11.663Z,43.50
2019-05-20T02:42:47.621Z,41.50
2019-05-20T02:45:23.204Z,39.90
2019-05-20T02:48:01.022Z,42.80
2019-05-20T02:50:38.501Z,41.00
2019-05-20T02:53:14.858Z,40.30
2019-05-20T02:55:50.423Z,41.60
2019-05-20T02:58:30.409Z,37.50
2019-05-20T03:01:06.248Z,41.30
2019-05-20T03:03:42.132Z,38.30
2019-05-20T03:06:18.181Z,41.30
2019-05-20T03:08:55.395Z,36.90
2019-05-20T03:11:33.124Z,36.40
2019-05-20T03:14:11.838Z,36.90
2019-05-20T03:16:49.310Z,37.80
2019-05-20T03:19:26.375Z,33.20
2019-05-20T03:22:03.091Z,33.50
2019-05-20T03:24:40.158Z,38.10
2019-05-20T03:27:14.114Z,37.30
2019-05-20T03:29:51.263Z,37.10
2019-05-20T03:32:26.827Z,38.10
2019-05-20T03:35:04.747Z,38.00
2019-05-20T03:37:40.392Z,38.80
2019-05-20T03:40:17.795Z,38.10
2019-05-20T03:42:53.275Z,38.10
2019-05-20T03:45:29.255Z,35.10
2019-05-20T03:48:06.196Z,39.80
2019-05-20T03:50:42.117Z,38.30
2019-05-20T03:53:22.435Z,37.20
2019-05-20T03:55:59.873Z,36.50
2019-05-20T03:58:34.029Z,39.10
2019-05-20T04:01:12.032Z,35.40
2019-05-20T04:03:48.911Z,37.30
2019-05-20T04:06:29.650Z,38.50
2019-05-20T04:09:07.202Z,37.60
2019-05-20T04:11:43.241Z,35.30
2019-05-20T04:14:20.700Z,36.20
2019-05-20T04:16:58.735Z,35.00
2019-05-20T04:19:34.524Z,34.80
2019-05-20T04:22:14.697Z,39.00
2019-05-20T04:24:55.441Z,34.70
2019-05-20T04:27:34.057Z,34.40
2019-05-20T04:30:13.017Z,37.30
2019-05-20T04:32:51.006Z,35.20
2019-05-20T04:35:28.253Z,38.60
2019-05-20T04:38:03.889Z,36.70
2019-05-20T04:40:43.518Z,33.50
2019-05-20T04:43:19.613Z,33.60
2019-05-20T04:45:57.117Z,34.80
2019-05-20T04:48:35.200Z,34.00
2019-05-20T04:51:13.581Z,37.50
2019-05-20T04:53:51.709Z,36.00
2019-05-20T04:56:41.630Z,34.80
2019-05-20T04:59:26.456Z,35.60
2019-05-20T05:02:03.318Z,31.20
2019-05-20T05:04:39.939Z,30.30
2019-05-20T05:07:17.087Z,36.60
2019-05-20T05:09:58.276Z,33.00
2019-05-20T05:12:37.488Z,32.20
2019-05-20T05:15:17.423Z,31.50
2019-05-20T05:17:57.038Z,33.20
2019-05-20T05:20:37.281Z,32.00
2019-05-20T05:23:17.331Z,33.70
2019-05-20T05:25:56.035Z,32.80
2019-05-20T05:28:33.671Z,32.10
2019-05-20T05:31:15.537Z,33.70
2019-05-20T05:33:55.886Z,33.30
2019-05-20T05:36:37.083Z,32.40
2019-05-20T05:39:14.785Z,30.90
2019-05-20T05:41:53.555Z,31.90
2019-05-20T05:44:30.322Z,33.70
2019-05-20T05:47:08.196Z,33.60
2019-05-20T05:49:48.071Z,34.20
2019-05-20T05:52:28.852Z,32.10
2019-05-20T05:55:04.513Z,32.30
2019-05-20T05:57:42.313Z,32.20
2019-05-20T06:00:18.172Z,32.60
2019-05-20T06:02:55.435Z,31.60
2019-05-20T06:05:31.713Z,31.20
2019-05-20T06:08:08.057Z,30.10
2019-05-20T06:10:44.907Z,30.00
2019-05-20T06:13:24.988Z,33.30
2019-05-20T06:16:00.742Z,31.50
2019-05-20T06:18:36.764Z,31.90
2019-05-20T06:21:14.011Z,33.20
2019-05-20T06:23:55.039Z,30.60
2019-05-20T06:26:33.121Z,29.40
2019-05-20T06:29:12.852Z,31.70
2019-05-20T06:31:51.249Z,30.60
2019-05-20T06:34:43.027Z,30.50
2019-05-20T06:37:23.457Z,30.80
2019-05-20T06:40:03.697Z,31.40
2019-05-20T06:42:43.499Z,33.20
2019-05-20T06:45:20.491Z,31.70
2019-05-20T06:47:56.239Z,30.50
2019-05-20T06:50:36.868Z,29.90
2019-05-20T06:53:21.200Z,32.80
2019-05-20T06:55:57.514Z,30.80
2019-05-20T06:58:40.886Z,28.90
2019-05-20T07:01:24.441Z,30.50
2019-05-20T07:03:59.512Z,29.40
2019-05-20T07:06:45.695Z,28.70
2019-05-20T07:09:12.271Z,29.80
2019-05-20T07:11:55.427Z,28.90
2019-05-20T07:14:32.355Z,28.10
2019-05-20T07:17:08.394Z,28.40
2019-05-20T07:19:52.491Z,29.00
2019-05-20T07:22:29.346Z,27.70
2019-05-20T07:25:08.895Z,28.70
2019-05-20T07:27:46.420Z,28.90
2019-05-20T07:33:18.599Z,29.50
2019-05-20T07:35:55.533Z,28.10
2019-05-20T07:38:34.356Z,30.00
2019-05-20T07:41:11.207Z,28.00
2019-05-20T07:43:48.479Z,28.70
2019-05-20T07:46:24.065Z,28.70
2019-05-20T07:49:05.088Z,28.40
2019-05-20T07:51:44.220Z,28.20
2019-05-20T07:54:24.029Z,29.20
2019-05-20T07:57:04.990Z,28.90
2019-05-20T07:59:44.840Z,28.60
2019-05-20T08:02:29.895Z,27.10
2019-05-20T08:05:10.206Z,28.60
2019-05-20T08:07:52.284Z,28.60
2019-05-20T08:10:24.383Z,28.90
2019-05-20T08:13:01.716Z,28.00
2019-05-20T08:15:37.834Z,28.70
2019-05-20T08:18:14.983Z,28.80
2019-05-20T08:20:55.357Z,27.80
2019-05-20T08:23:30.980Z,29.00
2019-05-20T08:26:07.770Z,28.20
2019-05-20T08:28:46.570Z,28.70
2019-05-20T08:31:21.759Z,28.40
2019-05-20T08:34:01.069Z,27.80
2019-05-20T08:36:37.431Z,27.90
2019-05-20T08:39:13.490Z,28.20
2019-05-20T08:41:49.667Z,29.20
2019-05-20T08:44:27.344Z,28.50
2019-05-20T08:47:05.049Z,28.80
2019-05-20T08:49:43.218Z,27.80
2019-05-20T08:52:19.978Z,29.30
2019-05-20T08:54:55.635Z,28.70
2019-05-20T08:57:33.856Z,29.50
2019-05-20T09:00:11.394Z,29.70
2019-05-20T09:02:47.667Z,29.10
2019-05-20T09:05:28.099Z,27.90
2019-05-20T09:08:05.857Z,28.80
2019-05-20T09:10:43.452Z,28.40
2019-05-20T09:13:20.941Z,30.00
2019-05-20T09:15:58.035Z,29.60
2019-05-20T09:18:36.337Z,29.20
2019-05-20T09:21:14.161Z,29.70
2019-05-20T09:23:50.446Z,30.10
2019-05-20T09:26:26.262Z,29.90
2019-05-20T09:29:14.727Z,30.40
2019-05-20T09:31:50.498Z,31.40
2019-05-20T09:34:33.029Z,31.60
2019-05-20T09:37:08.755Z,30.50
2019-05-20T09:45:44.841Z,32.70
2019-05-20T09:48:25.601Z,35.80
2019-05-20T09:51:05.827Z,37.80
2019-05-20T09:53:43.025Z,36.60
2019-05-20T09:56:19.244Z,33.80
2019-05-20T09:58:54.869Z,36.40
2019-05-20T10:01:31.079Z,40.20
2019-05-20T10:04:10.923Z,42.80
2019-05-20T10:06:51.088Z,40.80
2019-05-20T10:09:28.320Z,41.00
2019-05-20T10:12:06.118Z,41.60
2019-05-20T10:14:45.735Z,39.40
2019-05-20T10:17:23.292Z,39.10
2019-05-20T10:20:00.637Z,41.80
2019-05-20T10:22:39.543Z,39.10
2019-05-20T10:25:18.432Z,40.00
2019-05-20T10:27:58.821Z,39.60
2019-05-20T10:30:34.355Z,40.70
2019-05-20T10:33:14.442Z,44.20
2019-05-20T10:35:51.518Z,41.90
2019-05-20T10:38:31.747Z,42.40
2019-05-20T10:41:06.712Z,45.00
2019-05-20T10:43:48.359Z,44.60
2019-05-20T10:46:25.814Z,42.80
2019-05-20T10:49:06.119Z,45.20
2019-05-20T10:51:41.821Z,44.00
2019-05-20T10:54:19.792Z,43.40
2019-05-20T10:56:59.663Z,45.20
2019-05-20T10:59:36.385Z,44.90
2019-05-20T11:02:14.194Z,44.20
2019-05-20T11:04:52.921Z,45.70
2019-05-20T11:07:30.043Z,45.30
2019-05-20T11:10:07.859Z,45.30
2019-05-20T11:12:45.429Z,46.50
2019-05-20T11:15:23.215Z,44.70
2019-05-20T11:17:58.899Z,45.10
2019-05-20T11:20:35.845Z,46.20
2019-05-20T11:23:18.056Z,46.60
2019-05-20T11:25:55.053Z,44.20
2019-05-20T11:28:35.165Z,44.80
2019-05-20T11:31:11.246Z,45.50
2019-05-20T11:33:46.805Z,45.50
2019-05-20T11:36:23.010Z,45.50
2019-05-20T11:38:58.609Z,46.70
2019-05-20T11:44:16.423Z,45.50
2019-05-20T11:46:54.922Z,46.40
2019-05-20T11:49:34.995Z,46.90
2019-05-20T11:52:12.929Z,45.90
2019-05-20T11:54:50.407Z,46.70
2019-05-20T11:57:35.547Z,47.00
2019-05-20T12:00:13.366Z,47.00
2019-05-20T12:02:49.475Z,46.10
2019-05-20T12:05:25.030Z,45.90
2019-05-20T12:08:01.053Z,42.60
2019-05-20T12:10:36.755Z,44.50
2019-05-20T12:13:13.933Z,45.70
2019-05-20T12:15:53.037Z,45.80
2019-05-20T12:18:29.752Z,47.70
2019-05-20T12:21:05.478Z,49.60
2019-05-20T12:23:42.709Z,49.00
2019-05-20T12:26:18.496Z,48.30
2019-05-20T12:28:56.517Z,47.10
2019-05-20T12:31:32.067Z,46.90
2019-05-20T12:34:08.074Z,49.40
2019-05-20T12:36:45.324Z,48.60
2019-05-20T12:39:21.692Z,48.70
2019-05-20T12:42:01.012Z,48.70
2019-05-20T12:44:41.852Z,48.60
2019-05-20T12:47:18.899Z,48.50
2019-05-20T12:49:55.704Z,49.20
2019-05-20T12:52:36.667Z,47.80
2019-05-20T12:55:14.456Z,47.10
2019-05-20T12:57:52.202Z,47.70
2019-05-20T13:00:31.073Z,48.20
2019-05-20T13:03:07.997Z,48.40
2019-05-20T13:05:44.778Z,48.00
2019-05-20T13:08:21.287Z,47.70
2019-05-20T13:11:00.227Z,48.10
2019-05-20T13:13:39.640Z,48.20
2019-05-20T13:16:15.454Z,48.10
2019-05-20T13:18:56.544Z,48.10
2019-05-20T13:21:37.831Z,47.60
2019-05-20T13:24:19.948Z,48.10
2019-05-20T13:26:57.817Z,46.70
2019-05-20T13:29:43.385Z,47.20
2019-05-20T13:32:27.577Z,48.50
2019-05-20T13:35:08.213Z,48.60
2019-05-20T13:37:43.913Z,50.00
2019-05-20T13:40:43.023Z,50.00
2019-05-20T13:43:04.206Z,48.80
2019-05-20T13:45:43.088Z,49.00
2019-05-20T13:48:23.409Z,48.80
2019-05-20T13:51:05.230Z,49.30
2019-05-20T13:53:41.971Z,49.10
2019-05-20T13:56:27.385Z,48.30
2019-05-20T13:59:09.316Z,47.70
2019-05-20T14:01:46.568Z,48.40
2019-05-20T14:04:24.361Z,48.80
2019-05-20T14:07:07.240Z,48.50
2019-05-20T14:10:02.228Z,48.00
2019-05-20T14:12:42.898Z,49.10
2019-05-20T14:15:28.191Z,50.30
2019-05-20T14:18:06.279Z,47.90
2019-05-20T14:20:54.265Z,49.20
2019-05-20T14:23:36.114Z,49.70
2019-05-20T14:26:27.101Z,50.30
2019-05-20T14:29:06.348Z,51.40
2019-05-20T14:31:53.441Z,51.40
2019-05-20T14:34:47.781Z,49.90
2019-05-20T14:37:25.961Z,51.90
2019-05-20T14:40:19.804Z,51.50
2019-05-20T14:43:06.019Z,52.90
2019-05-20T14:45:51.295Z,52.10
2019-05-20T14:48:35.614Z,51.40
2019-05-20T14:51:22.044Z,51.40
2019-05-20T14:54:13.021Z,51.00
2019-05-20T14:56:53.837Z,51.50
2019-05-20T14:59:33.303Z,51.90
2019-05-20T15:02:13.790Z,50.80
2019-05-20T15:04:52.162Z,52.90
2019-05-20T15:07:31.477Z,54.60
2019-05-20T15:10:14.322Z,54.00
2019-05-20T15:12:52.435Z,52.50
2019-05-20T15:15:39.656Z,51.60
2019-05-20T15:18:20.138Z,53.90
2019-05-20T15:21:05.659Z,51.40
2019-05-20T15:23:43.565Z,51.90
2019-05-20T15:26:25.308Z,54.70
2019-05-20T15:29:26.895Z,53.40
2019-05-20T15:31:55.066Z,54.20
2019-05-20T15:34:35.965Z,54.60
2019-05-20T15:37:15.440Z,53.20
2019-05-20T15:42:51.034Z,54.60
2019-05-20T15:45:28.856Z,54.70
2019-05-20T15:48:07.099Z,54.10
2019-05-20T15:50:48.806Z,53.40
2019-05-20T15:53:32.660Z,54.30
2019-05-20T15:56:08.611Z,53.80
2019-05-20T15:58:50.232Z,52.40
2019-05-20T16:01:27.569Z,51.60
2019-05-20T16:04:04.639Z,53.20
2019-05-20T16:06:44.042Z,53.60
2019-05-20T16:09:23.888Z,52.40
2019-05-20T16:12:04.825Z,53.60
2019-05-20T16:14:46.996Z,54.90
2019-05-20T16:17:27.079Z,52.90
2019-05-20T16:20:07.169Z,53.70
2019-05-20T16:22:44.955Z,51.40
2019-05-20T16:25:25.565Z,51.30
2019-05-20T16:30:59.395Z,54.90
2019-05-20T16:33:36.318Z,55.30
2019-05-20T16:36:15.088Z,56.10
2019-05-20T16:38:56.267Z,56.40
2019-05-20T16:44:29.915Z,56.20
2019-05-20T16:47:10.889Z,57.30
2019-05-20T16:49:52.956Z,56.70
2019-05-20T16:52:40.594Z,55.40
2019-05-20T16:55:16.139Z,56.10
2019-05-20T16:57:52.033Z,57.40
2019-05-20T17:00:31.952Z,56.80
2019-05-20T17:03:04.361Z,56.20
2019-05-20T17:05:44.306Z,56.40
2019-05-20T17:08:27.579Z,57.70
2019-05-20T17:11:03.275Z,57.30
2019-05-20T17:13:44.135Z,57.20
2019-05-20T17:16:22.108Z,57.90
2019-05-20T17:19:02.468Z,57.30
2019-05-20T17:21:41.844Z,56.20
2019-05-20T17:24:19.052Z,56.80
2019-05-20T17:26:54.832Z,58.00
2019-05-20T17:29:31.586Z,57.60
2019-05-20T17:32:07.028Z,57.90
2019-05-20T17:34:43.035Z,57.00
2019-05-20T17:37:20.042Z,57.60
2019-05-20T17:39:57.517Z,56.30
2019-05-20T17:42:34.989Z,56.70
2019-05-20T17:45:10.966Z,57.60
2019-05-20T17:47:48.059Z,58.10
2019-05-20T17:50:25.292Z,57.20
2019-05-20T17:53:05.268Z,57.50
2019-05-20T17:55:41.463Z,59.40
2019-05-20T17:58:18.753Z,59.30
2019-05-20T18:00:56.015Z,61.00
2019-05-20T18:03:33.438Z,61.20
2019-05-20T18:06:09.118Z,60.90
2019-05-20T18:08:47.459Z,60.80
2019-05-20T18:11:23.237Z,58.80
2019-05-20T18:16:56.884Z,60.40
2019-05-20T18:19:32.536Z,61.50
2019-05-20T18:22:09.895Z,61.90
2019-05-20T18:24:45.541Z,60.80
2019-05-20T18:27:23.577Z,61.20
2019-05-20T18:29:59.204Z,61.20
2019-05-20T18:32:38.492Z,62.50
2019-05-20T18:35:13.665Z,62.60
2019-05-20T18:37:49.417Z,62.40
2019-05-20T18:40:29.396Z,61.90
2019-05-20T18:43:06.715Z,61.90
2019-05-20T18:45:42.456Z,62.20
2019-05-20T18:48:18.320Z,62.60
2019-05-20T18:50:55.548Z,62.50
2019-05-20T18:53:32.994Z,63.20
2019-05-20T18:56:08.634Z,63.10
2019-05-20T18:58:44.945Z,63.00
2019-05-20T19:01:20.493Z,63.60
2019-05-20T19:03:57.912Z,64.10
2019-05-20T19:06:33.699Z,63.60
2019-05-20T19:09:10.407Z,63.30
2019-05-20T19:11:45.998Z,64.50
2019-05-20T19:14:23.818Z,64.50
2019-05-20T19:17:01.258Z,65.00
2019-05-20T19:19:37.026Z,66.10
2019-05-20T19:22:12.685Z,67.30
2019-05-20T19:24:52.220Z,69.00
2019-05-20T19:27:27.696Z,67.40
2019-05-20T19:30:03.974Z,67.80
2019-05-20T19:32:41.064Z,67.80
2019-05-20T19:35:18.507Z,68.60
2019-05-20T19:37:58.251Z,69.30
2019-05-20T19:40:35.357Z,68.50
2019-05-20T19:43:12.494Z,67.10
2019-05-20T19:45:50.069Z,68.00
2019-05-20T19:48:27.034Z,69.00
2019-05-20T19:51:01.198Z,70.20
2019-05-20T19:53:36.553Z,70.20
2019-05-20T19:56:16.317Z,69.60
2019-05-20T19:58:53.377Z,70.40
2019-05-20T20:01:29.751Z,70.70
2019-05-20T20:04:06.748Z,70.50
2019-05-20T20:06:42.363Z,70.60
2019-05-20T20:09:19.110Z,70.40
2019-05-20T20:11:59.089Z,70.90
2019-05-20T20:14:36.101Z,70.10
2019-05-20T20:17:10.659Z,70.80
2019-05-20T20:19:46.103Z,70.70
2019-05-20T20:22:23.446Z,70.50
2019-05-20T20:25:03.141Z,71.20
2019-05-20T20:27:40.698Z,72.00
2019-05-20T20:30:16.522Z,71.80
2019-05-20T20:32:54.330Z,71.70
2019-05-20T20:35:37.677Z,70.10
2019-05-20T20:38:10.904Z,71.10
2019-05-20T20:40:50.885Z,70.70
2019-05-20T20:43:26.659Z,71.10
2019-05-20T20:46:03.640Z,71.80
2019-05-20T20:48:37.553Z,71.10
2019-05-20T20:51:14.304Z,71.30
2019-05-20T20:53:53.923Z,71.00
2019-05-20T20:56:33.972Z,71.70
2019-05-20T20:59:09.210Z,71.30
2019-05-20T21:01:44.892Z,72.40
2019-05-20T21:04:20.677Z,73.00
2019-05-20T21:06:57.788Z,73.50
2019-05-20T21:09:33.920Z,72.50
2019-05-20T21:12:09.490Z,72.50
2019-05-20T21:14:45.278Z,72.70
2019-05-20T21:17:21.127Z,71.70
2019-05-20T21:19:56.784Z,72.10
2019-05-20T21:22:32.532Z,72.20
2019-05-20T21:25:08.762Z,72.10
2019-05-20T21:27:44.828Z,72.40
2019-05-20T21:30:21.767Z,72.90
2019-05-20T21:33:08.752Z,71.70
2019-05-20T21:35:35.733Z,71.90
2019-05-20T21:38:13.326Z,72.60
2019-05-20T21:40:49.134Z,71.70
2019-05-20T21:43:24.894Z,71.30
2019-05-20T21:46:00.598Z,71.60
2019-05-20T21:48:37.763Z,72.10
2019-05-20T21:51:13.610Z,72.30
2019-05-20T21:53:50.763Z,73.10
2019-05-20T21:56:26.451Z,72.90
2019-05-20T21:59:03.568Z,72.50
2019-05-20T22:01:39.990Z,72.30
2019-05-20T22:04:15.751Z,72.50
2019-05-20T22:06:51.480Z,72.90
2019-05-20T22:09:28.766Z,73.20
2019-05-20T22:12:06.103Z,73.20
2019-05-20T22:14:41.708Z,72.10
2019-05-20T22:17:17.631Z,71.40
2019-05-20T22:19:54.917Z,70.00
2019-05-20T22:22:32.946Z,72.70
2019-05-20T22:25:08.864Z,72.30
2019-05-20T22:27:44.520Z,72.20
2019-05-20T22:30:20.242Z,69.70
2019-05-20T22:32:56.394Z,70.30
2019-05-20T22:35:31.902Z,72.30
2019-05-20T22:38:07.961Z,71.90
2019-05-20T22:40:43.506Z,71.30
2019-05-20T22:43:20.728Z,73.20
2019-05-20T22:45:57.820Z,70.90
2019-05-20T22:48:33.682Z,70.50
2019-05-20T22:51:09.186Z,68.90
2019-05-20T22:53:44.918Z,67.70
2019-05-20T22:56:21.518Z,66.50
2019-05-20T22:58:57.231Z,67.30
2019-05-20T23:01:36.904Z,67.10
2019-05-20T23:04:14.745Z,68.20
2019-05-20T23:06:50.449Z,66.20
2019-05-20T23:09:26.211Z,65.20
2019-05-20T23:12:03.340Z,64.60
2019-05-20T23:14:39.273Z,64.60
2019-05-20T23:17:14.932Z,65.00
2019-05-20T23:19:50.784Z,63.60
2019-05-20T23:22:26.606Z,63.00
2019-05-20T23:25:02.416Z,63.80
2019-05-20T23:27:38.061Z,62.00
2019-05-20T23:30:15.403Z,63.10
2019-05-20T23:32:50.961Z,63.20
2019-05-20T23:35:28.614Z,63.70
2019-05-20T23:38:06.090Z,62.80
2019-05-20T23:40:41.758Z,62.50
2019-05-20T23:43:17.500Z,62.70
2019-05-20T23:45:53.357Z,61.40
2019-05-20T23:48:29.290Z,61.80
2019-05-20T23:51:05.091Z,62.30
2019-05-20T23:53:40.652Z,62.00
2019-05-20T23:56:16.906Z,62.30
2019-05-20T23:58:52.506Z,62.20
